Time;durP1;ratioP1;P1;durP2;ratioP2;P2;SDS_P1;SDS_P2;PMS_P1;PMS_P2;Temp;Humidity;BMP_temperature;BMP_pressure;BME280_temperature;BME280_humidity;BME280_pressure;Samples;Min_cycle;Max_cycle;Signal;HPM_P1;HPM_P2
2024/04/14 00:00:32;;;;;;;;;;;;;;;17.54;47.56;95392.81;4533545;26;19939;-61
2024/04/14 00:02:34;;;;;;;;;;;;;;;17.46;48.17;95392.91;4529882;26;20224;-61
2024/04/14 00:04:36;;;;;;;;;;;;;;;17.43;47.94;95392.47;4523356;26;20000;-58
2024/04/14 00:06:38;;;;;;;;;;;;;;;17.43;47.95;95387.19;4527452;26;19983;-59
2024/04/14 00:08:40;;;;;;;;;;;;;;;17.36;47.91;95387.09;4536572;26;19935;-62
2024/04/14 00:10:42;;;;;;;;;;;;;;;17.25;48.52;95387.53;4534857;26;19993;-62
2024/04/14 00:12:44;;;;;;;;;;;;;;;17.25;48.62;95384.88;4533255;26;19928;-59
2024/04/14 00:14:45;;;;;;;;;;;;;;;17.26;47.94;95387.38;4525429;26;20262;-57
2024/04/14 00:16:48;;;;;;;;;;;;;;;17.22;48.43;95385.28;4528949;26;20320;-61
2024/04/14 00:18:49;;;;;;;;;;;;;;;17.23;47.79;95386.91;4533026;26;19934;-62
2024/04/14 00:20:53;;;;;;;;;;;;;;;17.26;48.42;95389.19;4532650;26;20100;-57
2024/04/14 00:22:55;;;;;;;;;;;;;;;17.23;48.40;95378.97;4533806;26;20231;-60
2024/04/14 00:24:57;;;;;;;;;;;;;;;17.24;47.83;95380.63;4534397;26;19996;-59
2024/04/14 00:26:58;;;;;;;;;;;;;;;17.23;48.24;95377.16;4535229;26;20362;-61
2024/04/14 00:29:00;;;;;;;;;;;;;;;17.22;47.88;95372.03;4535795;26;20312;-58
2024/04/14 00:31:02;;;;;;;;;;;;;;;17.19;48.01;95379.34;4519557;26;19935;-62
2024/04/14 00:33:04;;;;;;;;;;;;;;;17.18;48.50;95377.69;4528019;26;19973;-59
2024/04/14 00:35:06;;;;;;;;;;;;;;;17.17;48.56;95372.59;4520984;26;19943;-62
2024/04/14 00:37:08;;;;;;;;;;;;;;;17.10;48.35;95380.44;4535119;26;19955;-61
2024/04/14 00:39:12;;;;;;;;;;;;;;;17.06;48.82;95375.69;4531483;26;19928;-60
2024/04/14 00:41:14;;;;;;;;;;;;;;;17.08;48.83;95366.56;4527307;26;20263;-62
2024/04/14 00:43:15;;;;;;;;;;;;;;;17.12;48.80;95369.66;4534321;26;20079;-60
2024/04/14 00:45:17;;;;;;;;;;;;;;;17.08;48.65;95371.84;4532905;26;19944;-58
2024/04/14 00:47:19;;;;;;;;;;;;;;;17.12;48.42;95367.84;4533475;26;19936;-61
2024/04/14 00:49:21;;;;;;;;;;;;;;;17.11;48.26;95368.84;4525003;26;19928;-60
2024/04/14 00:51:23;;;;;;;;;;;;;;;17.14;48.32;95370.28;4545957;26;19927;-59
2024/04/14 00:53:25;;;;;;;;;;;;;;;17.15;48.58;95370.13;4528264;26;19928;-60
2024/04/14 00:55:27;;;;;;;;;;;;;;;17.12;48.27;95367.84;4533171;26;19928;-61
2024/04/14 00:57:29;;;;;;;;;;;;;;;17.13;48.25;95366.81;4523247;26;20584;-60
2024/04/14 00:59:32;;;;;;;;;;;;;;;17.08;48.34;95363.91;4523860;26;20043;-63
2024/04/14 01:01:36;;;;;;;;;;;;;;;17.04;48.85;95362.63;4526098;26;19936;-60
2024/04/14 01:03:37;;;;;;;;;;;;;;;16.97;49.33;95373.13;4529686;26;19927;-59
2024/04/14 01:05:39;;;;;;;;;;;;;;;16.95;49.36;95375.16;4533558;26;19970;-59
2024/04/14 01:07:41;;;;;;;;;;;;;;;16.92;49.38;95370.19;4530335;26;19928;-60
2024/04/14 01:09:43;;;;;;;;;;;;;;;16.90;49.42;95372.19;4532240;26;19940;-60
2024/04/14 01:11:45;;;;;;;;;;;;;;;16.88;49.39;95373.38;4527591;26;20335;-59
2024/04/14 01:13:47;;;;;;;;;;;;;;;16.92;49.72;95366.72;4531967;26;20390;-61
2024/04/14 01:15:49;;;;;;;;;;;;;;;16.94;49.90;95367.38;4515082;26;19995;-60
2024/04/14 01:17:51;;;;;;;;;;;;;;;16.87;49.95;95366.47;4532463;26;20363;-59
2024/04/14 01:19:53;;;;;;;;;;;;;;;16.84;49.66;95372.91;4532068;26;19939;-60
2024/04/14 01:21:55;;;;;;;;;;;;;;;16.80;49.63;95371.66;4529032;26;20009;-59
2024/04/14 01:23:57;;;;;;;;;;;;;;;16.69;49.86;95372.91;4527965;26;19927;-62
2024/04/14 01:25:58;;;;;;;;;;;;;;;16.68;50.45;95365.94;4524444;26;19935;-59
2024/04/14 01:28:00;;;;;;;;;;;;;;;16.69;50.12;95366.75;4519952;26;19977;-60
2024/04/14 01:30:05;;;;;;;;;;;;;;;16.73;49.97;95366.22;4529395;26;19935;-60
2024/04/14 01:32:07;;;;;;;;;;;;;;;16.78;50.32;95366.50;4532354;26;19928;-58
2024/04/14 01:34:09;;;;;;;;;;;;;;;16.76;50.21;95370.34;4525350;26;19927;-59
2024/04/14 01:36:11;;;;;;;;;;;;;;;16.73;50.22;95370.69;4528229;26;19954;-61
2024/04/14 01:38:12;;;;;;;;;;;;;;;16.54;50.66;95367.59;4532129;26;19943;-60
2024/04/14 01:40:26;;;;;;;;;;;;;;;16.49;50.83;95363.81;4528107;26;19940;-58
2024/04/14 01:42:29;;;;;;;;;;;;;;;16.48;50.70;95373.59;4522916;26;20542;-60
2024/04/14 01:44:30;;;;;;;;;;;;;;;16.42;50.53;95369.00;4530317;26;19928;-59
2024/04/14 01:46:32;;;;;;;;;;;;;;;16.45;50.93;95365.19;4517602;26;19940;-60
2024/04/14 01:48:35;;;;;;;;;;;;;;;16.45;50.62;95365.19;4527133;26;19927;-61
2024/04/14 01:50:37;;;;;;;;;;;;;;;16.40;50.62;95368.38;4533039;26;20427;-60
2024/04/14 01:52:38;;;;;;;;;;;;;;;16.38;50.54;95373.00;4531597;26;20270;-61
2024/04/14 01:54:40;;;;;;;;;;;;;;;16.37;50.64;95366.91;4530819;26;19968;-59
2024/04/14 01:56:42;;;;;;;;;;;;;;;16.37;51.02;95371.38;4532184;26;19956;-59
2024/04/14 01:58:44;;;;;;;;;;;;;;;16.37;50.77;95372.19;4532130;26;19997;-59
2024/04/14 02:00:47;;;;;;;;;;;;;;;16.44;50.54;95367.00;4533191;26;19928;-57
2024/04/14 02:02:51;;;;;;;;;;;;;;;16.48;50.92;95368.28;4522999;26;19936;-58
2024/04/14 02:04:53;;;;;;;;;;;;;;;16.51;50.69;95367.09;4535881;26;20415;-60
2024/04/14 02:06:55;;;;;;;;;;;;;;;16.55;50.74;95366.56;4516086;26;19997;-61
2024/04/14 02:08:57;;;;;;;;;;;;;;;16.54;50.33;95364.09;4531469;26;19935;-60
2024/04/14 02:11:02;;;;;;;;;;;;;;;16.53;50.66;95373.03;4531140;26;19956;-60
2024/04/14 02:13:04;;;;;;;;;;;;;;;16.51;50.80;95375.03;4526133;26;19939;-59
2024/04/14 02:15:06;;;;;;;;;;;;;;;16.45;50.92;95368.63;4530660;26;20448;-60
2024/04/14 02:17:07;;;;;;;;;;;;;;;16.48;50.90;95372.78;4531614;26;19951;-58
2024/04/14 02:19:09;;;;;;;;;;;;;;;16.46;50.47;95372.94;4533897;26;19940;-57
2024/04/14 02:21:11;;;;;;;;;;;;;;;16.46;50.48;95372.94;4531284;26;19935;-59
2024/04/14 02:23:13;;;;;;;;;;;;;;;16.50;50.55;95378.69;4529525;26;19927;-59
2024/04/14 02:25:14;;;;;;;;;;;;;;;16.50;50.45;95374.22;4530803;26;20368;-60
2024/04/14 02:27:16;;;;;;;;;;;;;;;16.52;50.44;95379.31;4524057;26;20627;-59
2024/04/14 02:29:18;;;;;;;;;;;;;;;16.48;50.37;95370.13;4523106;26;19928;-60
2024/04/14 02:31:20;;;;;;;;;;;;;;;16.49;50.39;95369.09;4524128;26;19973;-59
2024/04/14 02:33:22;;;;;;;;;;;;;;;16.47;50.90;95376.41;4523949;26;20011;-61
2024/04/14 02:35:24;;;;;;;;;;;;;;;16.53;50.36;95376.50;4518596;26;19936;-59
2024/04/14 02:37:26;;;;;;;;;;;;;;;16.54;50.73;95372.03;4521762;26;20368;-59
2024/04/14 02:39:28;;;;;;;;;;;;;;;16.55;50.56;95371.03;4535696;26;19997;-59
2024/04/14 02:41:30;;;;;;;;;;;;;;;16.55;51.17;95374.50;4524170;26;20374;-59
2024/04/14 02:43:35;;;;;;;;;;;;;;;16.57;51.21;95369.84;4533261;26;19928;-59
2024/04/14 02:45:37;;;;;;;;;;;;;;;16.48;52.28;95363.00;4531724;26;19944;-59
2024/04/14 02:47:39;;;;;;;;;;;;;;;16.42;52.78;95365.53;4521853;26;19947;-60
2024/04/14 02:49:40;;;;;;;;;;;;;;;16.33;52.55;95362.97;4528281;26;19940;-61
2024/04/14 02:51:43;;;;;;;;;;;;;;;16.35;52.66;95354.88;4526173;26;20300;-59
2024/04/14 02:53:45;;;;;;;;;;;;;;;16.32;53.44;95358.66;4532685;26;19928;-59
2024/04/14 02:55:46;;;;;;;;;;;;;;;16.30;53.87;95365.94;4522351;26;20016;-59
2024/04/14 02:57:48;;;;;;;;;;;;;;;16.24;54.02;95365.84;4523700;26;20463;-61
2024/04/14 02:59:50;;;;;;;;;;;;;;;16.18;54.35;95357.63;4525470;26;19940;-59
2024/04/14 03:01:52;;;;;;;;;;;;;;;16.14;54.11;95364.28;4522060;26;19940;-59
2024/04/14 03:03:54;;;;;;;;;;;;;;;16.17;54.74;95365.72;4523240;26;19939;-60
2024/04/14 03:05:59;;;;;;;;;;;;;;;16.06;54.88;95359.03;4531048;26;19935;-60
2024/04/14 03:08:02;;;;;;;;;;;;;;;15.94;55.51;95371.84;4529187;26;19928;-59
2024/04/14 03:10:04;;;;;;;;;;;;;;;15.74;56.02;95375.94;4528126;26;19928;-60
2024/04/14 03:12:08;;;;;;;;;;;;;;;15.63;56.13;95386.88;4530698;26;19959;-59
2024/04/14 03:14:10;;;;;;;;;;;;;;;15.54;55.42;95378.97;4530523;26;19928;-60
2024/04/14 03:16:13;;;;;;;;;;;;;;;15.62;55.21;95382.59;4522869;26;20383;-59
2024/04/14 03:18:14;;;;;;;;;;;;;;;15.67;54.56;95383.69;4529181;26;19932;-60
2024/04/14 03:20:16;;;;;;;;;;;;;;;15.68;54.57;95384.53;4532200;26;19935;-60
2024/04/14 03:22:18;;;;;;;;;;;;;;;15.64;54.48;95385.84;4513164;26;19998;-60
2024/04/14 03:24:20;;;;;;;;;;;;;;;15.46;55.01;95391.41;4527094;26;19948;-60
2024/04/14 03:26:21;;;;;;;;;;;;;;;15.26;56.47;95391.81;4521735;26;19946;-60
2024/04/14 03:28:24;;;;;;;;;;;;;;;15.11;56.51;95389.06;4521865;26;19935;-60
2024/04/14 03:30:26;;;;;;;;;;;;;;;14.94;57.65;95384.84;4535307;26;20221;-56
2024/04/14 03:32:27;;;;;;;;;;;;;;;14.71;58.41;95389.97;4530437;26;20338;-60
2024/04/14 03:34:29;;;;;;;;;;;;;;;14.52;58.39;95383.25;4530612;26;19929;-60
2024/04/14 03:36:31;;;;;;;;;;;;;;;14.57;59.13;95391.50;4513391;26;20000;-60
2024/04/14 03:38:34;;;;;;;;;;;;;;;14.66;59.44;95389.66;4536206;26;19996;-60
2024/04/14 03:40:35;;;;;;;;;;;;;;;14.62;59.28;95391.00;4516356;26;19936;-61
2024/04/14 03:42:37;;;;;;;;;;;;;;;14.54;59.46;95400.53;4533315;26;19952;-60
2024/04/14 03:44:39;;;;;;;;;;;;;;;14.57;58.93;95394.13;4534705;26;20008;-60
2024/04/14 03:46:41;;;;;;;;;;;;;;;14.56;58.59;95400.38;4514612;26;20009;-59
2024/04/14 03:48:43;;;;;;;;;;;;;;;14.61;58.63;95399.91;4532098;26;19936;-62
2024/04/14 03:50:45;;;;;;;;;;;;;;;14.63;58.74;95396.13;4533083;26;19952;-60
2024/04/14 03:52:47;;;;;;;;;;;;;;;14.68;58.71;95399.06;4528284;26;20375;-60
2024/04/14 03:54:49;;;;;;;;;;;;;;;14.83;58.57;95398.38;4514848;26;19980;-57
2024/04/14 03:56:51;;;;;;;;;;;;;;;14.91;58.50;95393.91;4531461;26;19997;-59
2024/04/14 03:58:52;;;;;;;;;;;;;;;15.06;58.34;95393.22;4535499;26;19935;-60
2024/04/14 04:00:55;;;;;;;;;;;;;;;15.18;57.74;95386.56;4525945;26;19944;-59
2024/04/14 04:02:57;;;;;;;;;;;;;;;15.14;57.35;95379.97;4550595;26;19936;-60
2024/04/14 04:04:58;;;;;;;;;;;;;;;15.21;57.43;95385.41;4546502;26;19944;-59
2024/04/14 04:07:00;;;;;;;;;;;;;;;15.28;57.72;95386.38;4532944;26;20038;-59
2024/04/14 04:09:03;;;;;;;;;;;;;;;15.30;57.19;95389.66;4528521;26;20001;-61
2024/04/14 04:11:05;;;;;;;;;;;;;;;15.33;57.29;95389.31;4532538;26;19927;-60
2024/04/14 04:13:07;;;;;;;;;;;;;;;15.36;57.07;95389.00;4533849;26;19944;-60
2024/04/14 04:15:10;;;;;;;;;;;;;;;15.35;56.96;95392.59;4529139;26;19941;-59
2024/04/14 04:17:11;;;;;;;;;;;;;;;15.31;56.69;95386.84;4533673;26;20390;-60
2024/04/14 04:19:13;;;;;;;;;;;;;;;15.32;57.36;95387.69;4533736;26;19943;-60
2024/04/14 04:21:27;;;;;;;;;;;;;;;15.26;57.37;95388.38;4522893;26;19928;-60
2024/04/14 04:23:29;;;;;;;;;;;;;;;15.24;56.83;95391.16;4535567;26;19928;-60
2024/04/14 04:25:31;;;;;;;;;;;;;;;15.07;57.73;95398.31;4533009;26;19996;-60
2024/04/14 04:27:33;;;;;;;;;;;;;;;15.04;57.58;95403.94;4528228;26;19940;-59
2024/04/14 04:29:36;;;;;;;;;;;;;;;15.06;57.83;95409.88;4535924;26;19996;-58
2024/04/14 04:31:38;;;;;;;;;;;;;;;15.05;57.42;95412.66;4525645;26;20365;-60
2024/04/14 04:33:40;;;;;;;;;;;;;;;15.04;57.61;95414.50;4530045;26;19935;-60
2024/04/14 04:35:54;;;;;;;;;;;;;;;15.08;57.88;95413.16;4533645;26;19936;-60
2024/04/14 04:37:57;;;;;;;;;;;;;;;15.17;58.00;95416.59;4535856;26;20410;-59
2024/04/14 04:39:59;;;;;;;;;;;;;;;15.29;57.88;95409.97;4521380;26;20724;-61
2024/04/14 04:42:01;;;;;;;;;;;;;;;15.40;57.46;95416.69;4534374;26;20295;-62
2024/04/14 04:44:05;;;;;;;;;;;;;;;15.49;57.46;95415.66;4528952;26;19928;-59
2024/04/14 04:46:07;;;;;;;;;;;;;;;15.60;57.52;95416.28;4531414;26;20004;-59
2024/04/14 04:48:09;;;;;;;;;;;;;;;15.65;56.93;95419.22;4533471;26;19944;-61
2024/04/14 04:50:11;;;;;;;;;;;;;;;15.71;56.44;95424.66;4532508;26;19986;-60
2024/04/14 04:52:13;;;;;;;;;;;;;;;15.67;56.01;95420.69;4527283;26;19936;-59
2024/04/14 04:54:16;;;;;;;;;;;;;;;15.56;56.11;95421.88;4534714;26;19950;-60
2024/04/14 04:56:19;;;;;;;;;;;;;;;15.52;56.70;95425.88;4537230;26;19947;-60
2024/04/14 04:58:21;;;;;;;;;;;;;;;15.50;56.57;95427.03;4528946;26;19928;-61
2024/04/14 05:00:23;;;;;;;;;;;;;;;15.58;57.36;95429.66;4534804;26;20388;-60
2024/04/14 05:02:25;;;;;;;;;;;;;;;15.70;56.88;95427.44;4527649;26;19928;-60
2024/04/14 05:04:27;;;;;;;;;;;;;;;15.67;56.24;95430.44;4524959;26;19928;-60
2024/04/14 05:06:29;;;;;;;;;;;;;;;15.74;56.62;95431.41;4527005;26;19952;-61
2024/04/14 05:08:33;;;;;;;;;;;;;;;15.83;56.52;95435.69;4541283;26;20036;-61
2024/04/14 05:10:35;;;;;;;;;;;;;;;15.90;56.21;95439.25;4527796;26;19996;-61
2024/04/14 05:12:37;;;;;;;;;;;;;;;15.96;55.09;95432.47;4527684;26;19952;-62
2024/04/14 05:14:38;;;;;;;;;;;;;;;16.04;55.85;95424.47;4528765;26;19928;-57
2024/04/14 05:16:40;;;;;;;;;;;;;;;16.17;55.28;95437.09;4534304;26;19936;-59
2024/04/14 05:18:42;;;;;;;;;;;;;;;16.32;54.61;95431.88;4527238;26;19928;-61
2024/04/14 05:20:44;;;;;;;;;;;;;;;16.47;55.19;95438.03;4531357;26;19940;-59
2024/04/14 05:22:46;;;;;;;;;;;;;;;16.50;54.54;95432.41;4532552;26;20223;-62
2024/04/14 05:24:47;;;;;;;;;;;;;;;16.56;54.97;95436.16;4525743;26;19965;-64
2024/04/14 05:26:49;;;;;;;;;;;;;;;16.62;54.57;95432.78;4536787;26;20020;-61
2024/04/14 05:28:51;;;;;;;;;;;;;;;16.47;54.40;95435.41;4529663;26;19927;-59
2024/04/14 05:30:53;;;;;;;;;;;;;;;16.25;53.86;95431.75;4516188;26;19935;-61
2024/04/14 05:32:57;;;;;;;;;;;;;;;16.14;54.44;95433.00;4531674;26;20086;-62
2024/04/14 05:34:59;;;;;;;;;;;;;;;16.23;54.08;95432.94;4534489;26;19939;-61
2024/04/14 05:37:02;;;;;;;;;;;;;;;16.34;53.47;95433.34;4534081;26;20268;-61
2024/04/14 05:39:03;;;;;;;;;;;;;;;16.20;53.75;95428.84;4529442;26;19935;-60
2024/04/14 05:41:05;;;;;;;;;;;;;;;16.31;53.18;95430.25;4533886;26;20008;-59
2024/04/14 05:43:07;;;;;;;;;;;;;;;16.46;53.47;95432.94;4529037;26;20339;-59
2024/04/14 05:45:09;;;;;;;;;;;;;;;16.63;52.58;95436.25;4532831;26;20064;-61
2024/04/14 05:47:11;;;;;;;;;;;;;;;16.73;52.44;95429.72;4532981;26;19928;-60
2024/04/14 05:49:12;;;;;;;;;;;;;;;16.77;52.65;95431.00;4533084;26;19968;-58
2024/04/14 05:51:20;;;;;;;;;;;;;;;16.86;51.90;95433.59;4527032;26;19928;-61
2024/04/14 05:53:22;;;;;;;;;;;;;;;16.82;52.30;95432.31;4528719;26;20317;-59
2024/04/14 05:55:24;;;;;;;;;;;;;;;16.87;51.78;95436.09;4525468;26;19939;-59
2024/04/14 05:57:26;;;;;;;;;;;;;;;16.98;51.84;95424.25;4528837;26;20497;-58
2024/04/14 05:59:28;;;;;;;;;;;;;;;17.10;51.83;95433.38;4529347;26;19927;-60
2024/04/14 06:01:30;;;;;;;;;;;;;;;17.07;52.00;95428.44;4527322;26;20343;-58
2024/04/14 06:03:32;;;;;;;;;;;;;;;17.16;51.95;95435.31;4533070;26;20247;-60
2024/04/14 06:05:34;;;;;;;;;;;;;;;17.27;52.13;95433.19;4533434;26;19984;-58
2024/04/14 06:07:36;;;;;;;;;;;;;;;17.27;51.83;95423.44;4533553;26;19928;-61
2024/04/14 06:09:37;;;;;;;;;;;;;;;17.39;52.17;95429.91;4527981;26;19940;-62
2024/04/14 06:11:39;;;;;;;;;;;;;;;17.48;51.81;95422.69;4528544;26;19938;-60
2024/04/14 06:13:41;;;;;;;;;;;;;;;17.67;51.67;95425.78;4526273;26;19934;-60
2024/04/14 06:15:43;;;;;;;;;;;;;;;17.76;50.53;95430.78;4533409;26;19939;-62
2024/04/14 06:17:49;;;;;;;;;;;;;;;17.31;51.25;95429.19;4514101;26;19928;-60
2024/04/14 06:19:51;;;;;;;;;;;;;;;17.21;51.74;95432.13;4531417;26;19935;-59
2024/04/14 06:21:53;;;;;;;;;;;;;;;17.22;51.71;95433.75;4530210;26;19948;-60
2024/04/14 06:23:55;;;;;;;;;;;;;;;17.27;51.51;95434.03;4528136;26;20390;-60
2024/04/14 06:25:57;;;;;;;;;;;;;;;17.12;51.31;95439.31;4524608;26;19936;-59
2024/04/14 06:27:58;;;;;;;;;;;;;;;17.22;51.50;95438.22;4523115;26;19956;-62
2024/04/14 06:30:00;;;;;;;;;;;;;;;17.14;51.88;95434.66;4531130;26;19928;-61
2024/04/14 06:32:02;;;;;;;;;;;;;;;17.03;51.43;95435.09;4514415;26;19928;-59
2024/04/14 06:34:04;;;;;;;;;;;;;;;17.16;51.50;95430.03;4530984;26;19935;-60
2024/04/14 06:36:06;;;;;;;;;;;;;;;17.39;51.50;95434.38;4516343;26;19932;-60
2024/04/14 06:38:09;;;;;;;;;;;;;;;17.56;50.98;95427.88;4512882;26;20067;-59
2024/04/14 06:40:10;;;;;;;;;;;;;;;17.48;51.09;95433.28;4516763;26;20094;-61
2024/04/14 06:42:13;;;;;;;;;;;;;;;17.53;50.96;95428.28;4527090;26;20011;-61
2024/04/14 06:44:17;;;;;;;;;;;;;;;17.53;50.62;95422.97;4526602;26;20050;-59
2024/04/14 06:46:19;;;;;;;;;;;;;;;17.34;50.93;95418.25;4529134;26;19928;-61
2024/04/14 06:48:21;;;;;;;;;;;;;;;17.28;51.67;95427.72;4532684;26;20386;-62
2024/04/14 06:50:22;;;;;;;;;;;;;;;17.33;51.29;95425.34;4530529;26;19928;-61
2024/04/14 06:52:24;;;;;;;;;;;;;;;17.36;51.64;95434.78;4529902;26;19947;-61
2024/04/14 06:54:27;;;;;;;;;;;;;;;17.30;51.09;95430.19;4532043;26;19996;-60
2024/04/14 06:56:29;;;;;;;;;;;;;;;17.30;51.40;95424.91;4515525;26;19928;-59
2024/04/14 06:58:33;;;;;;;;;;;;;;;17.56;50.81;95422.59;4522041;26;19939;-60
2024/04/14 07:00:35;;;;;;;;;;;;;;;17.89;50.49;95419.53;4520653;26;19928;-60
2024/04/14 07:02:37;;;;;;;;;;;;;;;18.10;49.43;95415.28;4529061;26;19940;-59
2024/04/14 07:04:39;;;;;;;;;;;;;;;18.16;49.57;95419.84;4531016;26;19928;-58
2024/04/14 07:06:41;;;;;;;;;;;;;;;18.36;49.16;95418.19;4520022;26;20239;-61
2024/04/14 07:08:43;;;;;;;;;;;;;;;18.66;48.42;95426.00;4529724;26;19960;-57
2024/04/14 07:10:45;;;;;;;;;;;;;;;18.61;48.37;95423.13;4534834;26;20270;-60
2024/04/14 07:12:47;;;;;;;;;;;;;;;18.30;48.83;95428.75;4524426;26;19932;-62
2024/04/14 07:14:48;;;;;;;;;;;;;;;18.44;48.88;95427.88;4524262;26;20047;-60
2024/04/14 07:16:50;;;;;;;;;;;;;;;18.62;47.70;95419.44;4514772;26;20442;-60
2024/04/14 07:18:52;;;;;;;;;;;;;;;18.74;47.95;95419.75;4521679;26;20000;-60
2024/04/14 07:20:54;;;;;;;;;;;;;;;18.74;47.87;95423.22;4535940;26;20231;-59
2024/04/14 07:22:56;;;;;;;;;;;;;;;18.73;48.18;95426.06;4532576;26;19935;-60
2024/04/14 07:25:00;;;;;;;;;;;;;;;18.87;47.69;95419.06;4534145;26;20584;-61
2024/04/14 07:27:03;;;;;;;;;;;;;;;19.07;46.72;95425.34;4490926;26;20088;-59
2024/04/14 07:29:04;;;;;;;;;;;;;;;19.12;46.73;95414.13;4535435;26;19928;-61
2024/04/14 07:31:06;;;;;;;;;;;;;;;19.28;46.71;95415.66;4525917;26;20040;-59
2024/04/14 07:33:08;;;;;;;;;;;;;;;19.05;46.83;95416.75;4529220;26;19943;-59
2024/04/14 07:35:10;;;;;;;;;;;;;;;19.17;46.51;95412.53;4524408;26;20300;-60
2024/04/14 07:37:12;;;;;;;;;;;;;;;18.81;46.28;95410.84;4534330;26;19935;-61
2024/04/14 07:39:14;;;;;;;;;;;;;;;18.93;47.39;95407.66;4532548;26;19943;-60
2024/04/14 07:41:16;;;;;;;;;;;;;;;18.93;47.01;95399.69;4512116;26;19941;-60
2024/04/14 07:43:18;;;;;;;;;;;;;;;19.02;46.37;95399.38;4544579;26;19928;-59
2024/04/14 07:45:19;;;;;;;;;;;;;;;19.08;46.00;95404.91;4524794;26;20352;-61
2024/04/14 07:47:22;;;;;;;;;;;;;;;19.47;45.45;95400.81;4511324;26;19935;-61
2024/04/14 07:49:24;;;;;;;;;;;;;;;19.67;45.39;95398.28;4532246;26;19936;-60
2024/04/14 07:51:25;;;;;;;;;;;;;;;19.46;45.25;95400.00;4534570;26;19968;-59
2024/04/14 07:53:27;;;;;;;;;;;;;;;19.41;45.74;95405.09;4534568;26;19947;-60
2024/04/14 07:55:29;;;;;;;;;;;;;;;19.69;45.64;95398.91;4530712;26;19928;-62
2024/04/14 07:57:31;;;;;;;;;;;;;;;19.88;45.53;95403.50;4526476;26;19944;-61
2024/04/14 07:59:32;;;;;;;;;;;;;;;19.85;44.32;95395.91;4518355;26;20028;-62
2024/04/14 08:01:34;;;;;;;;;;;;;;;19.90;44.76;95396.16;4532345;26;19936;-60
2024/04/14 08:03:36;;;;;;;;;;;;;;;19.68;44.43;95402.56;4524464;26;19929;-62
2024/04/14 08:05:53;;;;;;;;;;;;;;;19.50;45.26;95403.91;4521673;26;20358;-59
2024/04/14 08:07:55;;;;;;;;;;;;;;;19.73;44.76;95401.00;4531963;26;19940;-61
2024/04/14 08:09:57;;;;;;;;;;;;;;;19.64;44.98;95402.97;4528341;26;19961;-61
2024/04/14 08:11:59;;;;;;;;;;;;;;;20.02;44.75;95405.16;4531623;26;19981;-62
2024/04/14 08:14:01;;;;;;;;;;;;;;;20.29;44.26;95397.25;4520645;26;19929;-62
2024/04/14 08:16:02;;;;;;;;;;;;;;;20.41;44.18;95402.78;4524050;26;19936;-61
2024/04/14 08:18:05;;;;;;;;;;;;;;;20.25;44.66;95398.69;4534661;26;19939;-61
2024/04/14 08:20:07;;;;;;;;;;;;;;;20.49;44.52;95399.13;4526202;26;19936;-63
2024/04/14 08:22:09;;;;;;;;;;;;;;;20.39;44.49;95397.69;4542655;26;19991;-61
2024/04/14 08:24:11;;;;;;;;;;;;;;;20.58;44.23;95398.72;4528656;26;19939;-62
2024/04/14 08:26:12;;;;;;;;;;;;;;;20.67;44.29;95396.69;4527065;26;20065;-60
2024/04/14 08:28:14;;;;;;;;;;;;;;;20.67;44.33;95391.34;4535547;26;20004;-60
2024/04/14 08:30:17;;;;;;;;;;;;;;;20.82;43.84;95396.47;4532452;26;19927;-60
2024/04/14 08:32:19;;;;;;;;;;;;;;;20.88;43.46;95397.50;4520405;26;19928;-61
2024/04/14 08:34:21;;;;;;;;;;;;;;;20.71;43.44;95391.78;4529451;26;19943;-61
2024/04/14 08:36:23;;;;;;;;;;;;;;;20.76;44.21;95394.66;4532491;26;19960;-61
2024/04/14 08:38:24;;;;;;;;;;;;;;;21.01;43.48;95392.97;4522216;26;20431;-59
2024/04/14 08:40:26;;;;;;;;;;;;;;;21.33;43.63;95389.66;4532992;26;19996;-61
2024/04/14 08:42:28;;;;;;;;;;;;;;;21.62;42.79;95386.50;4533743;26;19928;-61
2024/04/14 08:44:31;;;;;;;;;;;;;;;21.73;41.84;95395.69;4534630;26;19928;-62
2024/04/14 08:46:33;;;;;;;;;;;;;;;21.60;41.35;95388.56;4529486;26;20380;-63
2024/04/14 08:48:35;;;;;;;;;;;;;;;21.63;39.98;95401.47;4530044;26;20359;-62
2024/04/14 08:50:37;;;;;;;;;;;;;;;21.73;40.21;95389.56;4503558;26;20006;-59
2024/04/14 08:52:39;;;;;;;;;;;;;;;21.64;40.15;95400.47;4532263;26;19964;-61
2024/04/14 08:54:42;;;;;;;;;;;;;;;21.59;41.05;95389.59;4531581;26;20180;-59
2024/04/14 08:56:43;;;;;;;;;;;;;;;21.51;41.28;95399.66;4522174;26;19939;-60
2024/04/14 08:58:45;;;;;;;;;;;;;;;21.41;41.18;95384.94;4515099;26;19952;-59
2024/04/14 09:00:47;;;;;;;;;;;;;;;21.60;42.36;95385.91;4526641;26;19995;-62
2024/04/14 09:02:49;;;;;;;;;;;;;;;21.94;41.41;95383.91;4517133;26;19981;-61
2024/04/14 09:04:51;;;;;;;;;;;;;;;22.17;40.78;95382.56;4534509;26;19968;-61
2024/04/14 09:06:53;;;;;;;;;;;;;;;22.36;39.78;95381.63;4527496;26;19939;-61
2024/04/14 09:08:55;;;;;;;;;;;;;;;21.45;41.03;95375.50;4532085;26;19932;-62
2024/04/14 09:10:57;;;;;;;;;;;;;;;21.72;40.73;95379.91;4525052;26;19943;-62
2024/04/14 09:12:58;;;;;;;;;;;;;;;22.07;40.30;95377.69;4522637;26;19929;-62
2024/04/14 09:15:03;;;;;;;;;;;;;;;22.47;39.52;95375.59;4524930;26;19959;-62
2024/04/14 09:17:05;;;;;;;;;;;;;;;22.24;38.97;95370.84;4527425;26;19928;-61
2024/04/14 09:19:07;;;;;;;;;;;;;;;22.45;38.69;95369.66;4521664;26;20289;-61
2024/04/14 09:21:09;;;;;;;;;;;;;;;22.74;39.07;95369.25;4527438;26;20011;-64
2024/04/14 09:23:11;;;;;;;;;;;;;;;22.80;38.29;95369.19;4534660;26;19928;-64
2024/04/14 09:25:17;;;;;;;;;;;;;;;22.77;38.58;95358.94;4525711;26;20363;-63
2024/04/14 09:27:21;;;;;;;;;;;;;;;23.04;37.92;95367.56;4531963;26;19932;-62
2024/04/14 09:29:23;;;;;;;;;;;;;;;22.81;37.05;95354.78;4532525;26;20095;-62
2024/04/14 09:31:25;;;;;;;;;;;;;;;22.80;37.73;95358.50;4514072;26;19928;-61
2024/04/14 09:33:27;;;;;;;;;;;;;;;22.53;37.25;95368.56;4527623;26;19942;-63
2024/04/14 09:35:29;;;;;;;;;;;;;;;22.69;37.61;95357.38;4526014;26;19992;-61
2024/04/14 09:37:31;;;;;;;;;;;;;;;22.85;36.11;95355.97;4514407;26;19940;-63
2024/04/14 09:39:32;;;;;;;;;;;;;;;22.98;35.15;95355.03;4524688;26;20351;-61
2024/04/14 09:41:35;;;;;;;;;;;;;;;23.31;35.89;95352.03;4523410;26;19956;-61
2024/04/14 09:43:37;;;;;;;;;;;;;;;23.54;34.89;95347.88;4528356;26;20036;-62
2024/04/14 09:45:39;;;;;;;;;;;;;;;23.83;34.69;95348.16;4534940;26;19940;-59
2024/04/14 09:47:41;;;;;;;;;;;;;;;24.06;34.45;95336.75;4530563;26;19939;-61
2024/04/14 09:49:43;;;;;;;;;;;;;;;23.95;33.59;95338.34;4534815;26;19932;-59
2024/04/14 09:51:45;;;;;;;;;;;;;;;23.77;34.73;95336.53;4522201;26;19987;-61
2024/04/14 09:53:47;;;;;;;;;;;;;;;23.85;34.24;95336.19;4531875;26;20424;-62
2024/04/14 09:55:49;;;;;;;;;;;;;;;23.98;33.87;95334.38;4531931;26;19987;-60
2024/04/14 09:57:51;;;;;;;;;;;;;;;24.04;33.16;95334.28;4526036;26;21172;-62
2024/04/14 09:59:53;;;;;;;;;;;;;;;24.24;33.08;95325.16;4523210;26;20408;-61
2024/04/14 10:01:55;;;;;;;;;;;;;;;24.01;32.23;95331.28;4539840;26;19996;-60
2024/04/14 10:04:00;;;;;;;;;;;;;;;23.55;32.60;95328.13;4531709;26;20196;-61
2024/04/14 10:06:03;;;;;;;;;;;;;;;23.68;32.95;95327.13;4531094;26;20276;-60
2024/04/14 10:08:05;;;;;;;;;;;;;;;23.96;32.91;95323.91;4523492;26;19975;-61
2024/04/14 10:10:10;;;;;;;;;;;;;;;24.21;32.80;95314.91;4522383;26;20363;-60
2024/04/14 10:12:12;;;;;;;;;;;;;;;24.03;31.91;95321.16;4524205;26;19935;-62
2024/04/14 10:14:14;;;;;;;;;;;;;;;23.38;32.79;95322.59;4522873;26;19948;-59
2024/04/14 10:16:19;;;;;;;;;;;;;;;23.15;33.59;95317.91;4531170;26;19973;-61
2024/04/14 10:18:23;;;;;;;;;;;;;;;23.25;33.78;95307.50;4531891;26;19931;-60
2024/04/14 10:20:25;;;;;;;;;;;;;;;23.26;33.58;95306.47;4526882;26;19996;-61
2024/04/14 10:22:30;;;;;;;;;;;;;;;23.29;32.02;95300.66;4529554;26;20024;-60
2024/04/14 10:24:34;;;;;;;;;;;;;;;23.50;32.32;95295.91;4525691;26;20020;-60
2024/04/14 10:26:36;;;;;;;;;;;;;;;23.81;31.92;95291.41;4525949;26;19976;-62
2024/04/14 10:28:37;;;;;;;;;;;;;;;23.83;32.02;95290.16;4523583;26;20439;-60
2024/04/14 10:30:39;;;;;;;;;;;;;;;23.43;33.19;95287.16;4507170;26;20358;-60
2024/04/14 10:32:41;;;;;;;;;;;;;;;23.46;33.48;95284.00;4525635;26;19936;-61
2024/04/14 10:34:46;;;;;;;;;;;;;;;23.48;33.70;95285.41;4527226;26;19965;-60
2024/04/14 10:36:57;;;;;;;;;;;;;;;23.79;33.30;95269.41;4524075;26;19928;-62